sensor_id;sensor_type;location;lat;lon;timestamp;pressure;altitude;pressure_sealevel;temperature;humidity
20023;BME280;10172;42.054;24.546;2023-02-10T00:00:25;100236.84;;;-6.98;98.94
20023;BME280;10172;42.054;24.546;2023-02-10T00:02:50;100230.00;;;-6.96;100.00
20023;BME280;10172;42.054;24.546;2023-02-10T00:05:15;100229.72;;;-6.52;97.17
20023;BME280;10172;42.054;24.546;2023-02-10T00:07:41;100238.75;;;-6.66;97.28
20023;BME280;10172;42.054;24.546;2023-02-10T00:10:07;100226.41;;;-7.01;98.87
20023;BME280;10172;42.054;24.546;2023-02-10T00:12:35;100229.56;;;-6.83;98.56
20023;BME280;10172;42.054;24.546;2023-02-10T00:15:01;100235.56;;;-6.57;96.08
20023;BME280;10172;42.054;24.546;2023-02-10T00:17:26;100238.88;;;-6.61;95.58
20023;BME280;10172;42.054;24.546;2023-02-10T00:19:52;100221.53;;;-6.92;97.73
20023;BME280;10172;42.054;24.546;2023-02-10T00:22:17;100229.31;;;-7.17;100.00
20023;BME280;10172;42.054;24.546;2023-02-10T00:24:43;100225.84;;;-6.91;99.86
20023;BME280;10172;42.054;24.546;2023-02-10T00:27:08;100233.09;;;-6.54;97.05
20023;BME280;10172;42.054;24.546;2023-02-10T00:29:33;100226.53;;;-6.70;97.03
20023;BME280;10172;42.054;24.546;2023-02-10T00:31:59;100226.97;;;-6.83;97.57
20023;BME280;10172;42.054;24.546;2023-02-10T00:34:25;100217.63;;;-7.06;98.75
20023;BME280;10172;42.054;24.546;2023-02-10T00:36:51;100229.44;;;-6.88;98.73
20023;BME280;10172;42.054;24.546;2023-02-10T00:39:17;100228.97;;;-6.76;98.72
20023;BME280;10172;42.054;24.546;2023-02-10T00:41:42;100227.06;;;-7.34;100.00
20023;BME280;10172;42.054;24.546;2023-02-10T00:44:08;100224.06;;;-7.19;100.00
20023;BME280;10172;42.054;24.546;2023-02-10T00:46:34;100225.34;;;-6.53;99.57
20023;BME280;10172;42.054;24.546;2023-02-10T00:48:59;100213.38;;;-7.30;100.00
20023;BME280;10172;42.054;24.546;2023-02-10T00:51:25;100216.53;;;-7.13;100.00
20023;BME280;10172;42.054;24.546;2023-02-10T00:53:50;100218.06;;;-7.19;100.00
20023;BME280;10172;42.054;24.546;2023-02-10T00:56:17;100209.66;;;-7.38;100.00
20023;BME280;10172;42.054;24.546;2023-02-10T00:58:44;100209.69;;;-7.11;100.00
20023;BME280;10172;42.054;24.546;2023-02-10T01:01:09;100207.84;;;-6.88;99.44
20023;BME280;10172;42.054;24.546;2023-02-10T01:03:35;100206.63;;;-6.99;99.84
20023;BME280;10172;42.054;24.546;2023-02-10T01:06:00;100211.19;;;-6.92;99.68
20023;BME280;10172;42.054;24.546;2023-02-10T01:08:26;100197.13;;;-7.00;99.73
20023;BME280;10172;42.054;24.546;2023-02-10T01:11:03;100204.41;;;-6.60;99.26
20023;BME280;10172;42.054;24.546;2023-02-10T01:13:29;100197.69;;;-6.54;95.75
20023;BME280;10172;42.054;24.546;2023-02-10T01:15:55;100198.72;;;-6.77;98.40
20023;BME280;10172;42.054;24.546;2023-02-10T01:18:21;100207.84;;;-6.88;98.92
20023;BME280;10172;42.054;24.546;2023-02-10T01:20:46;100200.31;;;-7.07;99.40
20023;BME280;10172;42.054;24.546;2023-02-10T01:23:12;100191.78;;;-7.32;100.00
20023;BME280;10172;42.054;24.546;2023-02-10T01:25:37;100197.25;;;-7.22;100.00
20023;BME280;10172;42.054;24.546;2023-02-10T01:28:04;100202.97;;;-7.33;100.00
20023;BME280;10172;42.054;24.546;2023-02-10T01:30:30;100198.81;;;-7.28;100.00
20023;BME280;10172;42.054;24.546;2023-02-10T01:32:56;100191.28;;;-6.95;100.00
20023;BME280;10172;42.054;24.546;2023-02-10T01:35:21;100204.53;;;-6.84;99.39
20023;BME280;10172;42.054;24.546;2023-02-10T01:37:47;100192.56;;;-7.07;99.45
20023;BME280;10172;42.054;24.546;2023-02-10T01:40:13;100199.91;;;-7.46;100.00
20023;BME280;10172;42.054;24.546;2023-02-10T01:42:38;100186.91;;;-7.48;100.00
20023;BME280;10172;42.054;24.546;2023-02-10T01:45:34;100190.84;;;-7.34;100.00
20023;BME280;10172;42.054;24.546;2023-02-10T01:48:00;100183.53;;;-7.47;100.00
20023;BME280;10172;42.054;24.546;2023-02-10T01:50:31;100176.91;;;-7.39;100.00
20023;BME280;10172;42.054;24.546;2023-02-10T01:52:58;100191.75;;;-7.06;100.00
20023;BME280;10172;42.054;24.546;2023-02-10T01:55:28;100194.63;;;-7.49;100.00
20023;BME280;10172;42.054;24.546;2023-02-10T01:57:58;100192.19;;;-7.45;100.00
20023;BME280;10172;42.054;24.546;2023-02-10T02:00:25;100184.00;;;-7.06;100.00
20023;BME280;10172;42.054;24.546;2023-02-10T02:02:51;100182.44;;;-7.27;100.00
20023;BME280;10172;42.054;24.546;2023-02-10T02:05:30;100187.56;;;-7.55;100.00
20023;BME280;10172;42.054;24.546;2023-02-10T02:08:01;100181.50;;;-7.55;100.00
20023;BME280;10172;42.054;24.546;2023-02-10T02:21:39;100160.84;;;-7.54;100.00
20023;BME280;10172;42.054;24.546;2023-02-10T02:24:21;100165.66;;;-7.39;100.00
20023;BME280;10172;42.054;24.546;2023-02-10T02:32:21;100145.56;;;-7.21;100.00
20023;BME280;10172;42.054;24.546;2023-02-10T02:37:23;100145.97;;;-7.36;100.00
20023;BME280;10172;42.054;24.546;2023-02-10T02:39:53;100152.78;;;-7.38;100.00
20023;BME280;10172;42.054;24.546;2023-02-10T02:42:25;100145.19;;;-7.33;100.00
20023;BME280;10172;42.054;24.546;2023-02-10T02:44:54;100150.53;;;-7.79;100.00
20023;BME280;10172;42.054;24.546;2023-02-10T02:58:27;100141.91;;;-7.79;100.00
20023;BME280;10172;42.054;24.546;2023-02-10T03:01:00;100148.44;;;-8.14;100.00
20023;BME280;10172;42.054;24.546;2023-02-10T03:03:32;100149.72;;;-8.02;100.00
20023;BME280;10172;42.054;24.546;2023-02-10T03:05:59;100151.47;;;-7.77;100.00
20023;BME280;10172;42.054;24.546;2023-02-10T03:08:25;100134.28;;;-7.24;100.00
20023;BME280;10172;42.054;24.546;2023-02-10T03:10:51;100142.88;;;-8.01;100.00
20023;BME280;10172;42.054;24.546;2023-02-10T03:13:16;100143.25;;;-7.91;100.00
20023;BME280;10172;42.054;24.546;2023-02-10T03:15:42;100149.19;;;-7.93;100.00
20023;BME280;10172;42.054;24.546;2023-02-10T03:18:08;100147.63;;;-7.88;100.00
20023;BME280;10172;42.054;24.546;2023-02-10T03:20:34;100141.94;;;-8.03;100.00
20023;BME280;10172;42.054;24.546;2023-02-10T03:22:59;100149.06;;;-7.96;100.00
20023;BME280;10172;42.054;24.546;2023-02-10T03:25:25;100137.81;;;-7.98;100.00
20023;BME280;10172;42.054;24.546;2023-02-10T03:27:50;100148.44;;;-7.89;100.00
20023;BME280;10172;42.054;24.546;2023-02-10T03:30:16;100140.19;;;-7.54;100.00
20023;BME280;10172;42.054;24.546;2023-02-10T03:32:41;100132.31;;;-7.57;100.00
20023;BME280;10172;42.054;24.546;2023-02-10T03:35:07;100134.97;;;-7.55;100.00
20023;BME280;10172;42.054;24.546;2023-02-10T03:37:33;100125.44;;;-7.56;100.00
20023;BME280;10172;42.054;24.546;2023-02-10T03:39:58;100137.72;;;-7.76;100.00
20023;BME280;10172;42.054;24.546;2023-02-10T03:42:23;100129.38;;;-7.42;100.00
20023;BME280;10172;42.054;24.546;2023-02-10T03:44:49;100136.59;;;-7.32;100.00
20023;BME280;10172;42.054;24.546;2023-02-10T03:47:14;100140.34;;;-7.74;100.00
20023;BME280;10172;42.054;24.546;2023-02-10T03:49:40;100134.84;;;-7.60;100.00
20023;BME280;10172;42.054;24.546;2023-02-10T03:52:05;100135.75;;;-7.83;100.00
20023;BME280;10172;42.054;24.546;2023-02-10T03:54:31;100130.03;;;-7.48;100.00
20023;BME280;10172;42.054;24.546;2023-02-10T03:56:56;100133.72;;;-7.14;100.00
20023;BME280;10172;42.054;24.546;2023-02-10T03:59:22;100133.38;;;-6.98;100.00
20023;BME280;10172;42.054;24.546;2023-02-10T04:01:47;100133.75;;;-7.40;100.00
20023;BME280;10172;42.054;24.546;2023-02-10T04:04:13;100121.28;;;-7.53;100.00
20023;BME280;10172;42.054;24.546;2023-02-10T04:06:38;100118.56;;;-7.56;100.00
20023;BME280;10172;42.054;24.546;2023-02-10T04:09:04;100127.22;;;-7.55;100.00
20023;BME280;10172;42.054;24.546;2023-02-10T04:11:29;100117.41;;;-7.91;100.00
20023;BME280;10172;42.054;24.546;2023-02-10T04:13:55;100113.94;;;-7.12;100.00
20023;BME280;10172;42.054;24.546;2023-02-10T04:16:20;100121.47;;;-6.63;100.00
20023;BME280;10172;42.054;24.546;2023-02-10T04:18:52;100118.28;;;-6.83;99.48
20023;BME280;10172;42.054;24.546;2023-02-10T04:21:17;100120.63;;;-7.46;100.00
20023;BME280;10172;42.054;24.546;2023-02-10T04:23:43;100119.31;;;-7.60;100.00
20023;BME280;10172;42.054;24.546;2023-02-10T04:26:08;100132.75;;;-7.95;100.00
20023;BME280;10172;42.054;24.546;2023-02-10T04:28:34;100118.06;;;-7.96;100.00
20023;BME280;10172;42.054;24.546;2023-02-10T04:31:00;100125.47;;;-7.03;100.00
20023;BME280;10172;42.054;24.546;2023-02-10T04:33:26;100123.84;;;-7.26;100.00
20023;BME280;10172;42.054;24.546;2023-02-10T04:35:54;100117.19;;;-7.19;100.00
20023;BME280;10172;42.054;24.546;2023-02-10T04:38:21;100107.31;;;-6.76;100.00
20023;BME280;10172;42.054;24.546;2023-02-10T04:40:46;100111.09;;;-6.93;100.00
20023;BME280;10172;42.054;24.546;2023-02-10T04:43:12;100112.16;;;-7.42;100.00
20023;BME280;10172;42.054;24.546;2023-02-10T04:45:38;100107.19;;;-7.62;100.00
20023;BME280;10172;42.054;24.546;2023-02-10T04:48:04;100114.53;;;-7.73;100.00
20023;BME280;10172;42.054;24.546;2023-02-10T04:50:30;100116.25;;;-7.48;100.00
20023;BME280;10172;42.054;24.546;2023-02-10T04:52:55;100097.78;;;-7.59;100.00
20023;BME280;10172;42.054;24.546;2023-02-10T04:55:21;100126.81;;;-6.87;100.00
20023;BME280;10172;42.054;24.546;2023-02-10T04:57:47;100117.88;;;-6.39;100.00
20023;BME280;10172;42.054;24.546;2023-02-10T05:00:14;100132.63;;;-6.36;98.02
20023;BME280;10172;42.054;24.546;2023-02-10T05:02:40;100130.84;;;-6.39;95.79
20023;BME280;10172;42.054;24.546;2023-02-10T05:05:08;100127.88;;;-6.51;95.86
20023;BME280;10172;42.054;24.546;2023-02-10T05:07:34;100122.75;;;-6.79;98.30
20023;BME280;10172;42.054;24.546;2023-02-10T05:10:00;100122.94;;;-7.55;100.00
20023;BME280;10172;42.054;24.546;2023-02-10T05:12:25;100124.59;;;-7.30;100.00
20023;BME280;10172;42.054;24.546;2023-02-10T05:14:51;100134.03;;;-6.76;99.84
20023;BME280;10172;42.054;24.546;2023-02-10T05:17:16;100139.28;;;-6.74;98.94
20023;BME280;10172;42.054;24.546;2023-02-10T05:19:42;100141.09;;;-6.42;98.00
20023;BME280;10172;42.054;24.546;2023-02-10T05:22:07;100135.41;;;-6.60;97.58
20023;BME280;10172;42.054;24.546;2023-02-10T05:24:33;100134.63;;;-7.66;100.00
20023;BME280;10172;42.054;24.546;2023-02-10T05:26:58;100135.19;;;-7.74;100.00
20023;BME280;10172;42.054;24.546;2023-02-10T05:29:24;100129.56;;;-7.63;100.00
20023;BME280;10172;42.054;24.546;2023-02-10T05:31:49;100134.09;;;-7.56;100.00
20023;BME280;10172;42.054;24.546;2023-02-10T05:34:15;100139.31;;;-7.54;100.00
20023;BME280;10172;42.054;24.546;2023-02-10T05:36:40;100133.28;;;-7.55;100.00
20023;BME280;10172;42.054;24.546;2023-02-10T05:39:08;100141.69;;;-7.60;100.00
20023;BME280;10172;42.054;24.546;2023-02-10T05:41:53;100135.75;;;-7.83;100.00
20023;BME280;10172;42.054;24.546;2023-02-10T05:44:19;100140.63;;;-7.92;100.00
20023;BME280;10172;42.054;24.546;2023-02-10T05:46:44;100135.63;;;-7.86;100.00
20023;BME280;10172;42.054;24.546;2023-02-10T05:49:10;100133.06;;;-7.61;100.00
20023;BME280;10172;42.054;24.546;2023-02-10T05:51:35;100137.97;;;-7.16;100.00
20023;BME280;10172;42.054;24.546;2023-02-10T05:54:01;100142.06;;;-7.75;100.00
20023;BME280;10172;42.054;24.546;2023-02-10T05:56:26;100146.59;;;-7.93;100.00
20023;BME280;10172;42.054;24.546;2023-02-10T05:58:52;100149.41;;;-7.87;100.00
20023;BME280;10172;42.054;24.546;2023-02-10T06:01:18;100161.66;;;-8.05;100.00
20023;BME280;10172;42.054;24.546;2023-02-10T06:03:43;100162.94;;;-8.18;100.00
20023;BME280;10172;42.054;24.546;2023-02-10T06:06:09;100155.41;;;-7.63;100.00
20023;BME280;10172;42.054;24.546;2023-02-10T06:08:34;100158.44;;;-7.74;100.00
20023;BME280;10172;42.054;24.546;2023-02-10T06:10:59;100182.38;;;-7.80;100.00
20023;BME280;10172;42.054;24.546;2023-02-10T06:13:25;100152.38;;;-7.75;100.00
20023;BME280;10172;42.054;24.546;2023-02-10T06:15:50;100156.88;;;-7.95;100.00
20023;BME280;10172;42.054;24.546;2023-02-10T06:18:16;100161.22;;;-7.43;100.00
20023;BME280;10172;42.054;24.546;2023-02-10T06:20:41;100168.81;;;-7.22;100.00
20023;BME280;10172;42.054;24.546;2023-02-10T06:23:07;100168.13;;;-6.90;100.00
20023;BME280;10172;42.054;24.546;2023-02-10T06:25:33;100167.34;;;-6.88;100.00
20023;BME280;10172;42.054;24.546;2023-02-10T06:28:01;100175.19;;;-6.56;99.92
20023;BME280;10172;42.054;24.546;2023-02-10T06:30:27;100175.06;;;-6.01;97.20
20023;BME280;10172;42.054;24.546;2023-02-10T06:32:52;100177.13;;;-5.23;94.60
20023;BME280;10172;42.054;24.546;2023-02-10T06:35:18;100180.78;;;-5.15;91.90
20023;BME280;10172;42.054;24.546;2023-02-10T06:37:43;100175.13;;;-4.99;89.84
20023;BME280;10172;42.054;24.546;2023-02-10T06:40:09;100180.06;;;-4.73;87.77
20023;BME280;10172;42.054;24.546;2023-02-10T06:42:35;100180.53;;;-4.52;86.69
20023;BME280;10172;42.054;24.546;2023-02-10T06:45:00;100187.28;;;-4.20;85.62
20023;BME280;10172;42.054;24.546;2023-02-10T06:47:26;100184.75;;;-4.17;83.88
20023;BME280;10172;42.054;24.546;2023-02-10T06:49:52;100180.53;;;-4.52;85.50
20023;BME280;10172;42.054;24.546;2023-02-10T06:52:17;100194.25;;;-4.19;84.55
20023;BME280;10172;42.054;24.546;2023-02-10T06:54:43;100180.22;;;-3.84;82.71
20023;BME280;10172;42.054;24.546;2023-02-10T06:57:09;100186.31;;;-4.25;82.53
20023;BME280;10172;42.054;24.546;2023-02-10T06:59:35;100184.34;;;-3.95;83.40
20023;BME280;10172;42.054;24.546;2023-02-10T07:02:01;100183.00;;;-4.57;81.54
20023;BME280;10172;42.054;24.546;2023-02-10T07:04:31;100183.66;;;-4.67;84.42
20023;BME280;10172;42.054;24.546;2023-02-10T07:06:57;100181.63;;;-4.01;83.65
20023;BME280;10172;42.054;24.546;2023-02-10T07:09:23;100167.72;;;-3.56;80.86
20023;BME280;10172;42.054;24.546;2023-02-10T07:11:49;100166.31;;;-3.41;79.93
20023;BME280;10172;42.054;24.546;2023-02-10T07:14:15;100174.00;;;-3.47;80.42
20023;BME280;10172;42.054;24.546;2023-02-10T07:16:40;100167.94;;;-3.91;81.97
20023;BME280;10172;42.054;24.546;2023-02-10T07:19:06;100172.53;;;-3.31;81.62
20023;BME280;10172;42.054;24.546;2023-02-10T07:21:32;100184.69;;;-2.78;79.10
20023;BME280;10172;42.054;24.546;2023-02-10T07:23:57;100188.66;;;-3.01;78.96
20023;BME280;10172;42.054;24.546;2023-02-10T07:26:23;100194.66;;;-3.05;78.36
20023;BME280;10172;42.054;24.546;2023-02-10T07:28:49;100195.09;;;-2.78;78.18
20023;BME280;10172;42.054;24.546;2023-02-10T07:31:14;100192.66;;;-2.67;78.08
20023;BME280;10172;42.054;24.546;2023-02-10T07:33:40;100190.94;;;-2.68;77.30
20023;BME280;10172;42.054;24.546;2023-02-10T07:36:06;100196.13;;;-2.68;77.85
20023;BME280;10172;42.054;24.546;2023-02-10T07:38:32;100188.69;;;-2.44;78.89
20023;BME280;10172;42.054;24.546;2023-02-10T07:40:58;100185.28;;;-2.38;77.28
20023;BME280;10172;42.054;24.546;2023-02-10T07:43:24;100183.66;;;-2.30;77.91
20023;BME280;10172;42.054;24.546;2023-02-10T07:45:49;100186.25;;;-2.30;76.87
20023;BME280;10172;42.054;24.546;2023-02-10T07:48:18;100183.84;;;-2.15;76.62
20023;BME280;10172;42.054;24.546;2023-02-10T07:50:45;100179.94;;;-1.82;75.27
20023;BME280;10172;42.054;24.546;2023-02-10T07:53:11;100181.03;;;-1.60;74.83
20023;BME280;10172;42.054;24.546;2023-02-10T07:55:37;100174.63;;;-1.88;74.54
20023;BME280;10172;42.054;24.546;2023-02-10T07:58:03;100191.66;;;-2.15;74.91
20023;BME280;10172;42.054;24.546;2023-02-10T08:00:28;100171.97;;;-1.92;75.01
20023;BME280;10172;42.054;24.546;2023-02-10T08:02:54;100177.47;;;-1.68;74.02
20023;BME280;10172;42.054;24.546;2023-02-10T08:05:19;100180.41;;;-1.36;73.26
20023;BME280;10172;42.054;24.546;2023-02-10T08:07:46;100176.53;;;-0.84;70.84
20023;BME280;10172;42.054;24.546;2023-02-10T08:10:12;100174.88;;;-0.67;69.14
20023;BME280;10172;42.054;24.546;2023-02-10T08:12:37;100172.28;;;-0.66;67.21
20023;BME280;10172;42.054;24.546;2023-02-10T08:15:04;100181.94;;;-0.54;66.66
20023;BME280;10172;42.054;24.546;2023-02-10T08:17:30;100177.25;;;-0.99;67.49
20023;BME280;10172;42.054;24.546;2023-02-10T08:19:55;100172.44;;;-0.44;66.76
20023;BME280;10172;42.054;24.546;2023-02-10T08:22:21;100164.88;;;0.15;63.97
20023;BME280;10172;42.054;24.546;2023-02-10T08:24:46;100171.63;;;-0.36;63.03
20023;BME280;10172;42.054;24.546;2023-02-10T08:27:12;100172.69;;;0.03;64.19
20023;BME280;10172;42.054;24.546;2023-02-10T08:29:37;100181.09;;;-0.53;63.57
20023;BME280;10172;42.054;24.546;2023-02-10T08:32:03;100182.22;;;-1.29;66.10
20023;BME280;10172;42.054;24.546;2023-02-10T08:34:29;100169.72;;;-0.58;65.70
20023;BME280;10172;42.054;24.546;2023-02-10T08:36:54;100171.78;;;0.04;63.72
20023;BME280;10172;42.054;24.546;2023-02-10T08:39:20;100173.66;;;0.35;62.47
20023;BME280;10172;42.054;24.546;2023-02-10T08:41:47;100172.66;;;-0.04;61.76
20023;BME280;10172;42.054;24.546;2023-02-10T08:44:13;100168.13;;;-0.32;62.21
20023;BME280;10172;42.054;24.546;2023-02-10T08:46:38;100173.69;;;0.54;60.81
20023;BME280;10172;42.054;24.546;2023-02-10T08:49:04;100172.88;;;1.08;58.02
20023;BME280;10172;42.054;24.546;2023-02-10T08:51:29;100164.72;;;-0.19;60.82
20023;BME280;10172;42.054;24.546;2023-02-10T08:53:59;100180.44;;;-0.16;62.36
20023;BME280;10172;42.054;24.546;2023-02-10T08:56:24;100184.81;;;-0.12;59.87
20023;BME280;10172;42.054;24.546;2023-02-10T08:58:50;100178.13;;;0.80;60.17
20023;BME280;10172;42.054;24.546;2023-02-10T09:01:18;100171.13;;;0.98;58.51
20023;BME280;10172;42.054;24.546;2023-02-10T09:03:44;100168.38;;;0.20;59.24
20023;BME280;10172;42.054;24.546;2023-02-10T09:06:21;100177.22;;;1.52;57.82
20023;BME280;10172;42.054;24.546;2023-02-10T09:08:48;100175.19;;;-0.16;61.58
20023;BME280;10172;42.054;24.546;2023-02-10T09:11:15;100169.25;;;0.23;59.40
20023;BME280;10172;42.054;24.546;2023-02-10T09:13:41;100165.84;;;0.53;59.75
20023;BME280;10172;42.054;24.546;2023-02-10T09:16:07;100156.97;;;0.06;60.12
20023;BME280;10172;42.054;24.546;2023-02-10T09:18:32;100166.75;;;1.00;60.29
20023;BME280;10172;42.054;24.546;2023-02-10T09:20:59;100158.81;;;1.74;57.62
20023;BME280;10172;42.054;24.546;2023-02-10T09:23:25;100145.50;;;2.21;55.36
20023;BME280;10172;42.054;24.546;2023-02-10T09:25:58;100141.16;;;2.14;54.26
20023;BME280;10172;42.054;24.546;2023-02-10T09:28:25;100152.59;;;2.04;54.56
20023;BME280;10172;42.054;24.546;2023-02-10T09:30:50;100149.28;;;1.28;56.99
20023;BME280;10172;42.054;24.546;2023-02-10T09:33:16;100137.69;;;2.09;56.08
20023;BME280;10172;42.054;24.546;2023-02-10T09:35:42;100126.97;;;2.44;54.40
20023;BME280;10172;42.054;24.546;2023-02-10T09:38:09;100130.06;;;1.00;55.17
20023;BME280;10172;42.054;24.546;2023-02-10T09:49:11;100121.53;;;2.74;54.39
20023;BME280;10172;42.054;24.546;2023-02-10T09:51:47;100120.31;;;1.70;55.39
20023;BME280;10172;42.054;24.546;2023-02-10T09:54:17;100124.81;;;0.40;58.14
20023;BME280;10172;42.054;24.546;2023-02-10T09:56:43;100125.56;;;0.09;60.39
20023;BME280;10172;42.054;24.546;2023-02-10T09:59:19;100102.97;;;1.29;59.45
20023;BME280;10172;42.054;24.546;2023-02-10T10:01:53;100104.97;;;2.60;55.24
20023;BME280;10172;42.054;24.546;2023-02-10T10:04:22;100094.84;;;2.01;55.34
20023;BME280;10172;42.054;24.546;2023-02-10T10:06:52;100094.72;;;2.25;53.70
20023;BME280;10172;42.054;24.546;2023-02-10T10:09:35;100098.66;;;0.85;58.07
20023;BME280;10172;42.054;24.546;2023-02-10T10:12:03;100088.13;;;1.12;58.29
20023;BME280;10172;42.054;24.546;2023-02-10T10:14:36;100070.59;;;1.36;57.28
20023;BME280;10172;42.054;24.546;2023-02-10T10:31:01;100046.47;;;2.40;53.87
20023;BME280;10172;42.054;24.546;2023-02-10T10:33:37;100056.53;;;3.74;51.92
20023;BME280;10172;42.054;24.546;2023-02-10T10:36:08;100044.34;;;4.31;48.45
20023;BME280;10172;42.054;24.546;2023-02-10T10:38:42;100047.22;;;4.14;48.64
20023;BME280;10172;42.054;24.546;2023-02-10T10:41:12;100029.81;;;4.60;47.95
20023;BME280;10172;42.054;24.546;2023-02-10T10:43:48;100035.44;;;5.40;47.53
20023;BME280;10172;42.054;24.546;2023-02-10T10:48:43;100031.94;;;1.81;53.16
20023;BME280;10172;42.054;24.546;2023-02-10T10:51:08;100024.59;;;2.36;54.62
20023;BME280;10172;42.054;24.546;2023-02-10T10:53:41;100022.50;;;2.81;51.75
20023;BME280;10172;42.054;24.546;2023-02-10T10:56:15;100018.41;;;2.43;55.77
20023;BME280;10172;42.054;24.546;2023-02-10T10:58:43;100032.03;;;4.31;48.82
20023;BME280;10172;42.054;24.546;2023-02-10T11:01:12;100010.25;;;5.24;46.66
20023;BME280;10172;42.054;24.546;2023-02-10T11:03:37;100011.19;;;3.53;49.86
20023;BME280;10172;42.054;24.546;2023-02-10T11:08:44;100009.06;;;3.80;48.03
20023;BME280;10172;42.054;24.546;2023-02-10T11:11:15;100002.63;;;3.33;49.25
20023;BME280;10172;42.054;24.546;2023-02-10T11:13:51;100002.88;;;3.84;49.92
20023;BME280;10172;42.054;24.546;2023-02-10T11:16:18;99993.91;;;3.31;49.69
20023;BME280;10172;42.054;24.546;2023-02-10T11:21:19;99992.53;;;5.29;46.26
20023;BME280;10172;42.054;24.546;2023-02-10T11:23:53;99990.00;;;4.22;46.71
20023;BME280;10172;42.054;24.546;2023-02-10T11:26:26;99984.94;;;2.70;50.07
20023;BME280;10172;42.054;24.546;2023-02-10T11:28:53;99988.84;;;3.16;50.72
20023;BME280;10172;42.054;24.546;2023-02-10T11:34:00;99979.41;;;4.28;47.40
20023;BME280;10172;42.054;24.546;2023-02-10T11:36:38;99968.88;;;3.69;50.84
20023;BME280;10172;42.054;24.546;2023-02-10T11:39:29;99962.44;;;4.44;48.28
20023;BME280;10172;42.054;24.546;2023-02-10T11:41:53;99977.22;;;3.98;48.66
20023;BME280;10172;42.054;24.546;2023-02-10T11:44:28;99971.50;;;4.28;47.55
20023;BME280;10172;42.054;24.546;2023-02-10T11:47:10;99967.88;;;5.30;45.93
20023;BME280;10172;42.054;24.546;2023-02-10T11:49:45;99957.97;;;5.82;44.77
20023;BME280;10172;42.054;24.546;2023-02-10T11:52:12;99955.63;;;5.69;44.47
20023;BME280;10172;42.054;24.546;2023-02-10T11:54:39;99951.63;;;5.51;44.50
20023;BME280;10172;42.054;24.546;2023-02-10T11:57:21;99948.88;;;5.95;43.17
20023;BME280;10172;42.054;24.546;2023-02-10T12:16:51;99920.75;;;4.67;44.74
20023;BME280;10172;42.054;24.546;2023-02-10T12:25:22;99906.75;;;5.50;42.80
20023;BME280;10172;42.054;24.546;2023-02-10T12:34:09;99899.03;;;6.19;41.38
20023;BME280;10172;42.054;24.546;2023-02-10T12:44:56;99894.72;;;7.13;39.83
20023;BME280;10172;42.054;24.546;2023-02-10T12:52:54;99885.28;;;7.34;37.98
20023;BME280;10172;42.054;24.546;2023-02-10T12:55:26;99877.59;;;7.26;38.40
20023;BME280;10172;42.054;24.546;2023-02-10T12:58:00;99884.66;;;7.55;39.32
20023;BME280;10172;42.054;24.546;2023-02-10T13:00:37;99882.91;;;7.24;39.59
20023;BME280;10172;42.054;24.546;2023-02-10T13:05:42;99878.59;;;6.91;39.83
20023;BME280;10172;42.054;24.546;2023-02-10T13:08:14;99880.38;;;6.57;40.19
20023;BME280;10172;42.054;24.546;2023-02-10T13:10:46;99887.19;;;6.67;40.51
20023;BME280;10172;42.054;24.546;2023-02-10T13:15:50;99880.47;;;7.18;39.01
20023;BME280;10172;42.054;24.546;2023-02-10T13:18:20;99877.34;;;7.63;38.36
20023;BME280;10172;42.054;24.546;2023-02-10T13:21:14;99871.28;;;7.59;37.52
20023;BME280;10172;42.054;24.546;2023-02-10T13:27:07;99871.47;;;5.93;39.30
20023;BME280;10172;42.054;24.546;2023-02-10T13:29:44;99877.94;;;6.51;38.41
20023;BME280;10172;42.054;24.546;2023-02-10T13:33:03;99872.47;;;6.23;37.73
20023;BME280;10172;42.054;24.546;2023-02-10T13:35:15;99871.53;;;6.92;37.49
20023;BME280;10172;42.054;24.546;2023-02-10T13:37:53;99863.38;;;6.99;37.42
20023;BME280;10172;42.054;24.546;2023-02-10T13:43:00;99867.88;;;7.27;36.46
20023;BME280;10172;42.054;24.546;2023-02-10T13:45:31;99865.38;;;6.91;36.61
20023;BME280;10172;42.054;24.546;2023-02-10T13:48:15;99868.91;;;7.21;36.67
20023;BME280;10172;42.054;24.546;2023-02-10T13:50:52;99869.63;;;6.97;36.34
20023;BME280;10172;42.054;24.546;2023-02-10T14:06:44;99862.75;;;6.57;37.01
20023;BME280;10172;42.054;24.546;2023-02-10T14:09:34;99857.44;;;7.20;36.22
20023;BME280;10172;42.054;24.546;2023-02-10T14:12:04;99863.72;;;7.16;36.72
20023;BME280;10172;42.054;24.546;2023-02-10T14:14:38;99854.06;;;7.15;36.03
20023;BME280;10172;42.054;24.546;2023-02-10T14:17:27;99852.69;;;7.02;36.98
20023;BME280;10172;42.054;24.546;2023-02-10T14:19:56;99856.44;;;7.24;37.13
20023;BME280;10172;42.054;24.546;2023-02-10T14:22:34;99858.72;;;7.37;36.33
20023;BME280;10172;42.054;24.546;2023-02-10T14:25:27;99855.66;;;7.50;35.86
20023;BME280;10172;42.054;24.546;2023-02-10T14:27:54;99844.75;;;7.32;35.52
20023;BME280;10172;42.054;24.546;2023-02-10T14:30:22;99845.97;;;7.21;35.41
20023;BME280;10172;42.054;24.546;2023-02-10T14:32:50;99849.28;;;7.28;35.19
20023;BME280;10172;42.054;24.546;2023-02-10T14:35:22;99849.31;;;7.83;33.83
20023;BME280;10172;42.054;24.546;2023-02-10T14:37:50;99847.38;;;7.61;36.79
20023;BME280;10172;42.054;24.546;2023-02-10T14:40:17;99842.31;;;6.95;38.57
20023;BME280;10172;42.054;24.546;2023-02-10T14:42:44;99846.22;;;6.82;38.77
20023;BME280;10172;42.054;24.546;2023-02-10T14:45:24;99851.97;;;5.21;41.67
20023;BME280;10172;42.054;24.546;2023-02-10T14:47:54;99846.22;;;4.58;44.86
20023;BME280;10172;42.054;24.546;2023-02-10T14:50:32;99841.75;;;5.46;43.67
20023;BME280;10172;42.054;24.546;2023-02-10T14:53:00;99849.03;;;4.95;44.97
20023;BME280;10172;42.054;24.546;2023-02-10T14:58:18;99841.13;;;4.50;47.66
20023;BME280;10172;42.054;24.546;2023-02-10T15:01:16;99848.19;;;4.48;48.21